Portada
METAR-TAF:

METAR-TAF

Aeroports :

Tamworth, Austràlia

latitud: 31-05S, longitud: 150-50E, altitud: 410 m

Observació

L'informe es va fer fa 51 minuts, a les 20:00 UTC
Vent 8 kt del Sud/Sud-Est
Temperatura 12°C
Humitat 94%
Pressió 1019 hPa
Visibilitat 10 km o més
Núvols disperses a una alçada de 6900 ft

METAR: YSTW 072000Z AUTO 16008KT 9999 // SCT069 12/11 Q1019 RF00.0/000.0

Hora: 06:51 (20:51 UTC)

Pronòstic

L'informe es va fer fa 3 hores i 39 minuts, a les 17:12 UTC
Pronòstic vàlid del 07 a les 18 UTC al 08 a les 12 UTC
Vent 6 kt del Sud-Est
Visibilitat 10 km o més
Núvols disperses a una alçada de 5000 ft
A partir de les 08 a les 0000 UTC
Vent 7 kt del Oest/Sud-Oest
Visibilitat 10 km o més
sense núvols per sota de 1500 mi sense presència de cumulonimbus.
A partir de les 08 a les 0600 UTC
Vent 7 kt del Sud-Est
Visibilitat 10 km o més
Escasses núvols a una alçada de 4000 ft

TAF: YSTW 071712Z 0718/0812 14006KT 9999 SCT050 FM080000 25007KT CAVOK FM080600 13007KT 9999 FEW040

Observacions i pronòstics meteorològics de més de 4000 aeroports (METAR i TAF).

Les estacions disponibles són els punts grocs i vermells al mapa.

Posi el ratolí al punt desitjat per veure el nom de l'estació.

Feu clic per veure les observacions i els pronòstics meteorològics.

Per canviar el mapa: feu clic els botons verds amb una creu de color negre per apropar; al botó verd amb un guió per allunyar la imatge; o en les fletxes verdes per a mapes adjacents.


METAR-TAF: